sensor_id;sensor_type;location;lat;lon;timestamp;P1;durP1;ratioP1;P2;durP2;ratioP2
52530;SDS011;38441;52.894;6.040;2023-03-01T00:01:53;19.95;;;13.02;;
52530;SDS011;38441;52.894;6.040;2023-03-01T00:04:19;20.50;;;13.73;;
52530;SDS011;38441;52.894;6.040;2023-03-01T00:06:45;17.85;;;12.50;;
52530;SDS011;38441;52.894;6.040;2023-03-01T00:09:13;18.83;;;13.07;;
52530;SDS011;38441;52.894;6.040;2023-03-01T00:11:39;20.55;;;12.65;;
52530;SDS011;38441;52.894;6.040;2023-03-01T00:14:05;20.13;;;13.65;;
52530;SDS011;38441;52.894;6.040;2023-03-01T00:16:39;16.52;;;11.57;;
52530;SDS011;38441;52.894;6.040;2023-03-01T00:19:06;16.45;;;11.63;;
52530;SDS011;38441;52.894;6.040;2023-03-01T00:21:32;20.35;;;12.30;;
52530;SDS011;38441;52.894;6.040;2023-03-01T00:24:00;17.20;;;12.25;;
52530;SDS011;38441;52.894;6.040;2023-03-01T00:26:26;15.63;;;11.45;;
52530;SDS011;38441;52.894;6.040;2023-03-01T00:28:53;16.98;;;11.98;;
52530;SDS011;38441;52.894;6.040;2023-03-01T00:31:21;16.13;;;11.30;;
52530;SDS011;38441;52.894;6.040;2023-03-01T00:33:47;19.08;;;12.32;;
52530;SDS011;38441;52.894;6.040;2023-03-01T00:36:14;17.30;;;12.15;;
52530;SDS011;38441;52.894;6.040;2023-03-01T00:38:41;19.33;;;12.10;;
52530;SDS011;38441;52.894;6.040;2023-03-01T00:41:10;17.02;;;12.00;;
52530;SDS011;38441;52.894;6.040;2023-03-01T00:43:39;19.70;;;12.27;;
52530;SDS011;38441;52.894;6.040;2023-03-01T00:46:07;15.55;;;11.88;;
52530;SDS011;38441;52.894;6.040;2023-03-01T00:48:35;17.67;;;10.98;;
52530;SDS011;38441;52.894;6.040;2023-03-01T00:51:05;20.33;;;11.30;;
52530;SDS011;38441;52.894;6.040;2023-03-01T00:53:31;16.35;;;10.57;;
52530;SDS011;38441;52.894;6.040;2023-03-01T00:55:57;16.30;;;11.50;;
52530;SDS011;38441;52.894;6.040;2023-03-01T00:58:24;17.00;;;11.35;;
52530;SDS011;38441;52.894;6.040;2023-03-01T01:00:50;17.70;;;11.77;;
52530;SDS011;38441;52.894;6.040;2023-03-01T01:03:17;16.20;;;11.02;;
52530;SDS011;38441;52.894;6.040;2023-03-01T01:05:43;17.63;;;11.38;;
52530;SDS011;38441;52.894;6.040;2023-03-01T01:08:09;17.42;;;11.32;;
52530;SDS011;38441;52.894;6.040;2023-03-01T01:10:35;16.83;;;11.13;;
52530;SDS011;38441;52.894;6.040;2023-03-01T01:13:01;18.48;;;10.98;;
52530;SDS011;38441;52.894;6.040;2023-03-01T01:15:28;15.77;;;10.60;;
52530;SDS011;38441;52.894;6.040;2023-03-01T01:17:54;17.10;;;11.43;;
52530;SDS011;38441;52.894;6.040;2023-03-01T01:20:20;14.32;;;10.68;;
52530;SDS011;38441;52.894;6.040;2023-03-01T01:22:46;17.50;;;11.43;;
52530;SDS011;38441;52.894;6.040;2023-03-01T01:25:12;16.25;;;10.88;;
52530;SDS011;38441;52.894;6.040;2023-03-01T01:27:38;15.88;;;10.80;;
52530;SDS011;38441;52.894;6.040;2023-03-01T01:30:04;14.32;;;10.20;;
52530;SDS011;38441;52.894;6.040;2023-03-01T01:32:30;16.90;;;10.73;;
52530;SDS011;38441;52.894;6.040;2023-03-01T01:34:56;16.35;;;10.45;;
52530;SDS011;38441;52.894;6.040;2023-03-01T01:37:22;14.52;;;10.18;;
52530;SDS011;38441;52.894;6.040;2023-03-01T01:39:59;14.57;;;9.93;;
52530;SDS011;38441;52.894;6.040;2023-03-01T01:42:26;16.27;;;10.50;;
52530;SDS011;38441;52.894;6.040;2023-03-01T01:47:49;15.60;;;11.25;;
52530;SDS011;38441;52.894;6.040;2023-03-01T01:50:16;16.90;;;11.18;;
52530;SDS011;38441;52.894;6.040;2023-03-01T01:52:44;17.85;;;11.95;;
52530;SDS011;38441;52.894;6.040;2023-03-01T01:55:12;16.77;;;11.05;;
52530;SDS011;38441;52.894;6.040;2023-03-01T01:57:41;15.48;;;10.52;;
52530;SDS011;38441;52.894;6.040;2023-03-01T02:00:12;13.85;;;9.88;;
52530;SDS011;38441;52.894;6.040;2023-03-01T02:02:39;14.70;;;9.73;;
52530;SDS011;38441;52.894;6.040;2023-03-01T02:05:08;16.33;;;10.48;;
52530;SDS011;38441;52.894;6.040;2023-03-01T02:07:35;16.25;;;10.00;;
52530;SDS011;38441;52.894;6.040;2023-03-01T02:10:02;17.50;;;11.02;;
52530;SDS011;38441;52.894;6.040;2023-03-01T02:12:28;16.50;;;10.25;;
52530;SDS011;38441;52.894;6.040;2023-03-01T02:14:55;14.00;;;9.85;;
52530;SDS011;38441;52.894;6.040;2023-03-01T02:17:21;14.80;;;10.00;;
52530;SDS011;38441;52.894;6.040;2023-03-01T02:22:33;15.02;;;10.05;;
52530;SDS011;38441;52.894;6.040;2023-03-01T02:25:03;13.15;;;8.98;;
52530;SDS011;38441;52.894;6.040;2023-03-01T02:27:33;12.60;;;9.55;;
52530;SDS011;38441;52.894;6.040;2023-03-01T02:30:01;14.52;;;10.00;;
52530;SDS011;38441;52.894;6.040;2023-03-01T02:32:27;14.07;;;9.90;;
52530;SDS011;38441;52.894;6.040;2023-03-01T02:34:54;13.43;;;9.80;;
52530;SDS011;38441;52.894;6.040;2023-03-01T02:37:20;15.35;;;10.75;;
52530;SDS011;38441;52.894;6.040;2023-03-01T02:39:50;15.32;;;10.75;;
52530;SDS011;38441;52.894;6.040;2023-03-01T02:42:21;16.08;;;10.45;;
52530;SDS011;38441;52.894;6.040;2023-03-01T02:44:50;13.05;;;9.25;;
52530;SDS011;38441;52.894;6.040;2023-03-01T02:47:16;14.75;;;11.05;;
52530;SDS011;38441;52.894;6.040;2023-03-01T02:49:43;13.70;;;10.25;;
52530;SDS011;38441;52.894;6.040;2023-03-01T02:57:13;14.60;;;10.60;;
52530;SDS011;38441;52.894;6.040;2023-03-01T02:59:39;15.80;;;11.23;;
52530;SDS011;38441;52.894;6.040;2023-03-01T03:02:06;13.75;;;10.60;;
52530;SDS011;38441;52.894;6.040;2023-03-01T03:04:32;15.30;;;10.35;;
52530;SDS011;38441;52.894;6.040;2023-03-01T03:06:58;14.60;;;10.23;;
52530;SDS011;38441;52.894;6.040;2023-03-01T03:09:24;14.32;;;10.15;;
52530;SDS011;38441;52.894;6.040;2023-03-01T03:11:50;13.48;;;9.90;;
52530;SDS011;38441;52.894;6.040;2023-03-01T03:14:16;13.10;;;9.38;;
52530;SDS011;38441;52.894;6.040;2023-03-01T03:16:43;12.05;;;9.02;;
52530;SDS011;38441;52.894;6.040;2023-03-01T03:19:11;12.48;;;9.68;;
52530;SDS011;38441;52.894;6.040;2023-03-01T03:21:37;12.38;;;8.60;;
52530;SDS011;38441;52.894;6.040;2023-03-01T03:24:03;9.38;;;7.55;;
52530;SDS011;38441;52.894;6.040;2023-03-01T03:26:29;10.05;;;7.53;;
52530;SDS011;38441;52.894;6.040;2023-03-01T03:28:55;9.85;;;7.90;;
52530;SDS011;38441;52.894;6.040;2023-03-01T03:31:22;9.60;;;7.85;;
52530;SDS011;38441;52.894;6.040;2023-03-01T03:33:48;9.63;;;7.47;;
52530;SDS011;38441;52.894;6.040;2023-03-01T03:36:15;10.32;;;7.30;;
52530;SDS011;38441;52.894;6.040;2023-03-01T03:38:43;9.18;;;7.28;;
52530;SDS011;38441;52.894;6.040;2023-03-01T03:41:09;9.02;;;7.03;;
52530;SDS011;38441;52.894;6.040;2023-03-01T03:43:36;9.55;;;7.45;;
52530;SDS011;38441;52.894;6.040;2023-03-01T03:46:05;10.45;;;7.78;;
52530;SDS011;38441;52.894;6.040;2023-03-01T03:48:38;8.80;;;7.13;;
52530;SDS011;38441;52.894;6.040;2023-03-01T03:51:05;9.68;;;7.03;;
52530;SDS011;38441;52.894;6.040;2023-03-01T03:53:31;9.10;;;7.00;;
52530;SDS011;38441;52.894;6.040;2023-03-01T03:55:57;9.73;;;7.10;;
52530;SDS011;38441;52.894;6.040;2023-03-01T03:58:23;10.25;;;7.70;;
52530;SDS011;38441;52.894;6.040;2023-03-01T04:00:51;8.82;;;7.13;;
52530;SDS011;38441;52.894;6.040;2023-03-01T04:03:18;8.48;;;6.72;;
52530;SDS011;38441;52.894;6.040;2023-03-01T04:05:45;9.05;;;6.72;;
52530;SDS011;38441;52.894;6.040;2023-03-01T04:08:11;11.57;;;7.35;;
52530;SDS011;38441;52.894;6.040;2023-03-01T04:10:38;9.38;;;7.18;;
52530;SDS011;38441;52.894;6.040;2023-03-01T04:13:05;10.80;;;7.20;;
52530;SDS011;38441;52.894;6.040;2023-03-01T04:15:32;10.15;;;6.93;;
52530;SDS011;38441;52.894;6.040;2023-03-01T04:17:58;8.80;;;6.75;;
52530;SDS011;38441;52.894;6.040;2023-03-01T04:20:26;9.35;;;6.82;;
52530;SDS011;38441;52.894;6.040;2023-03-01T04:23:06;8.82;;;6.93;;
52530;SDS011;38441;52.894;6.040;2023-03-01T04:25:48;9.75;;;6.72;;
52530;SDS011;38441;52.894;6.040;2023-03-01T04:30:49;9.82;;;7.30;;
52530;SDS011;38441;52.894;6.040;2023-03-01T04:33:16;9.98;;;7.60;;
52530;SDS011;38441;52.894;6.040;2023-03-01T04:35:43;8.40;;;6.70;;
52530;SDS011;38441;52.894;6.040;2023-03-01T04:38:09;9.90;;;7.45;;
52530;SDS011;38441;52.894;6.040;2023-03-01T04:40:35;8.75;;;6.97;;
52530;SDS011;38441;52.894;6.040;2023-03-01T04:43:03;10.48;;;7.43;;
52530;SDS011;38441;52.894;6.040;2023-03-01T04:45:31;9.02;;;6.93;;
52530;SDS011;38441;52.894;6.040;2023-03-01T04:48:03;9.20;;;6.90;;
52530;SDS011;38441;52.894;6.040;2023-03-01T04:50:32;9.60;;;7.13;;
52530;SDS011;38441;52.894;6.040;2023-03-01T04:53:00;8.60;;;6.80;;
52530;SDS011;38441;52.894;6.040;2023-03-01T04:55:27;11.30;;;7.28;;
52530;SDS011;38441;52.894;6.040;2023-03-01T05:16:15;8.32;;;5.93;;
52530;SDS011;38441;52.894;6.040;2023-03-01T05:18:51;9.65;;;7.05;;
52530;SDS011;38441;52.894;6.040;2023-03-01T05:21:26;8.57;;;6.72;;
52530;SDS011;38441;52.894;6.040;2023-03-01T05:23:52;8.85;;;6.65;;
52530;SDS011;38441;52.894;6.040;2023-03-01T05:26:19;9.38;;;6.88;;
52530;SDS011;38441;52.894;6.040;2023-03-01T05:28:53;10.05;;;7.30;;
52530;SDS011;38441;52.894;6.040;2023-03-01T05:31:23;10.80;;;7.40;;
52530;SDS011;38441;52.894;6.040;2023-03-01T05:34:10;9.05;;;7.00;;
52530;SDS011;38441;52.894;6.040;2023-03-01T05:36:46;9.75;;;6.13;;
52530;SDS011;38441;52.894;6.040;2023-03-01T05:39:19;9.52;;;6.70;;
52530;SDS011;38441;52.894;6.040;2023-03-01T05:41:46;9.00;;;6.43;;
52530;SDS011;38441;52.894;6.040;2023-03-01T05:44:13;8.95;;;6.70;;
52530;SDS011;38441;52.894;6.040;2023-03-01T05:46:39;8.25;;;6.32;;
52530;SDS011;38441;52.894;6.040;2023-03-01T05:49:05;8.02;;;6.25;;
52530;SDS011;38441;52.894;6.040;2023-03-01T05:51:32;8.85;;;6.53;;
52530;SDS011;38441;52.894;6.040;2023-03-01T05:53:59;8.30;;;6.15;;
52530;SDS011;38441;52.894;6.040;2023-03-01T05:56:25;8.85;;;5.97;;
52530;SDS011;38441;52.894;6.040;2023-03-01T05:58:51;8.15;;;6.15;;
52530;SDS011;38441;52.894;6.040;2023-03-01T06:01:18;7.80;;;6.00;;
52530;SDS011;38441;52.894;6.040;2023-03-01T06:03:44;8.93;;;6.47;;
52530;SDS011;38441;52.894;6.040;2023-03-01T06:06:10;8.82;;;6.57;;
52530;SDS011;38441;52.894;6.040;2023-03-01T06:08:36;10.05;;;6.45;;
52530;SDS011;38441;52.894;6.040;2023-03-01T06:11:02;9.95;;;6.85;;
52530;SDS011;38441;52.894;6.040;2023-03-01T06:13:28;9.48;;;6.35;;
52530;SDS011;38441;52.894;6.040;2023-03-01T06:15:55;9.50;;;6.78;;
52530;SDS011;38441;52.894;6.040;2023-03-01T06:18:21;9.00;;;6.60;;
52530;SDS011;38441;52.894;6.040;2023-03-01T06:20:54;8.00;;;6.18;;
52530;SDS011;38441;52.894;6.040;2023-03-01T06:23:20;9.13;;;6.40;;
52530;SDS011;38441;52.894;6.040;2023-03-01T06:25:46;8.65;;;6.20;;
52530;SDS011;38441;52.894;6.040;2023-03-01T06:28:13;9.77;;;6.50;;
52530;SDS011;38441;52.894;6.040;2023-03-01T06:30:39;9.13;;;6.63;;
52530;SDS011;38441;52.894;6.040;2023-03-01T06:33:05;7.90;;;5.85;;
52530;SDS011;38441;52.894;6.040;2023-03-01T06:35:31;10.32;;;6.47;;
52530;SDS011;38441;52.894;6.040;2023-03-01T06:37:58;8.30;;;6.00;;
52530;SDS011;38441;52.894;6.040;2023-03-01T06:40:24;11.90;;;6.93;;
52530;SDS011;38441;52.894;6.040;2023-03-01T06:42:50;7.68;;;5.82;;
52530;SDS011;38441;52.894;6.040;2023-03-01T06:45:17;8.80;;;6.25;;
52530;SDS011;38441;52.894;6.040;2023-03-01T06:47:43;7.35;;;5.97;;
52530;SDS011;38441;52.894;6.040;2023-03-01T06:50:09;7.90;;;6.43;;
52530;SDS011;38441;52.894;6.040;2023-03-01T06:52:36;8.43;;;6.15;;
52530;SDS011;38441;52.894;6.040;2023-03-01T06:55:02;7.88;;;5.82;;
52530;SDS011;38441;52.894;6.040;2023-03-01T06:57:28;8.77;;;6.97;;
52530;SDS011;38441;52.894;6.040;2023-03-01T06:59:54;7.53;;;5.97;;
52530;SDS011;38441;52.894;6.040;2023-03-01T07:02:20;9.77;;;6.22;;
52530;SDS011;38441;52.894;6.040;2023-03-01T07:04:48;8.20;;;5.65;;
52530;SDS011;38441;52.894;6.040;2023-03-01T07:07:14;8.77;;;6.57;;
52530;SDS011;38441;52.894;6.040;2023-03-01T07:09:40;10.32;;;6.28;;
52530;SDS011;38441;52.894;6.040;2023-03-01T07:12:06;8.38;;;6.35;;
52530;SDS011;38441;52.894;6.040;2023-03-01T07:14:33;9.68;;;7.05;;
52530;SDS011;38441;52.894;6.040;2023-03-01T07:16:59;10.18;;;7.30;;
52530;SDS011;38441;52.894;6.040;2023-03-01T07:19:25;9.02;;;6.82;;
52530;SDS011;38441;52.894;6.040;2023-03-01T07:21:51;8.48;;;6.20;;
52530;SDS011;38441;52.894;6.040;2023-03-01T07:24:17;9.35;;;6.72;;
52530;SDS011;38441;52.894;6.040;2023-03-01T07:26:43;10.55;;;7.45;;
52530;SDS011;38441;52.894;6.040;2023-03-01T07:29:09;10.05;;;7.20;;
52530;SDS011;38441;52.894;6.040;2023-03-01T07:31:36;9.50;;;6.93;;
52530;SDS011;38441;52.894;6.040;2023-03-01T07:34:02;12.82;;;8.73;;
52530;SDS011;38441;52.894;6.040;2023-03-01T07:36:28;11.00;;;7.70;;
52530;SDS011;38441;52.894;6.040;2023-03-01T07:38:54;9.68;;;7.22;;
52530;SDS011;38441;52.894;6.040;2023-03-01T07:41:20;11.75;;;8.40;;
52530;SDS011;38441;52.894;6.040;2023-03-01T07:43:46;12.30;;;9.05;;
52530;SDS011;38441;52.894;6.040;2023-03-01T07:46:12;13.05;;;8.95;;
52530;SDS011;38441;52.894;6.040;2023-03-01T07:48:38;12.77;;;8.65;;
52530;SDS011;38441;52.894;6.040;2023-03-01T07:51:05;13.27;;;8.95;;
52530;SDS011;38441;52.894;6.040;2023-03-01T07:53:32;12.02;;;8.43;;
52530;SDS011;38441;52.894;6.040;2023-03-01T07:56:02;11.95;;;8.77;;
52530;SDS011;38441;52.894;6.040;2023-03-01T07:58:29;11.30;;;8.63;;
52530;SDS011;38441;52.894;6.040;2023-03-01T08:00:55;11.88;;;8.93;;
52530;SDS011;38441;52.894;6.040;2023-03-01T08:03:21;16.33;;;10.23;;
52530;SDS011;38441;52.894;6.040;2023-03-01T08:05:47;14.52;;;9.95;;
52530;SDS011;38441;52.894;6.040;2023-03-01T08:08:13;15.40;;;10.85;;
52530;SDS011;38441;52.894;6.040;2023-03-01T08:10:39;19.10;;;10.82;;
52530;SDS011;38441;52.894;6.040;2023-03-01T08:13:05;15.98;;;10.52;;
52530;SDS011;38441;52.894;6.040;2023-03-01T08:15:31;15.32;;;11.43;;
52530;SDS011;38441;52.894;6.040;2023-03-01T08:17:57;21.15;;;12.43;;
52530;SDS011;38441;52.894;6.040;2023-03-01T08:20:23;20.25;;;12.90;;
52530;SDS011;38441;52.894;6.040;2023-03-01T08:22:49;17.90;;;12.13;;
52530;SDS011;38441;52.894;6.040;2023-03-01T08:25:15;19.08;;;12.68;;
52530;SDS011;38441;52.894;6.040;2023-03-01T08:27:41;19.85;;;12.38;;
52530;SDS011;38441;52.894;6.040;2023-03-01T08:30:07;22.48;;;13.50;;
52530;SDS011;38441;52.894;6.040;2023-03-01T08:32:39;21.00;;;14.00;;
52530;SDS011;38441;52.894;6.040;2023-03-01T08:35:05;22.08;;;14.65;;
52530;SDS011;38441;52.894;6.040;2023-03-01T08:37:31;22.80;;;14.48;;
52530;SDS011;38441;52.894;6.040;2023-03-01T08:39:58;22.75;;;14.40;;
52530;SDS011;38441;52.894;6.040;2023-03-01T08:42:25;23.55;;;15.07;;
52530;SDS011;38441;52.894;6.040;2023-03-01T08:44:51;23.52;;;15.30;;
52530;SDS011;38441;52.894;6.040;2023-03-01T08:47:17;27.40;;;16.67;;
52530;SDS011;38441;52.894;6.040;2023-03-01T08:49:43;24.52;;;16.45;;
52530;SDS011;38441;52.894;6.040;2023-03-01T08:52:09;26.63;;;16.63;;
52530;SDS011;38441;52.894;6.040;2023-03-01T08:54:35;28.27;;;18.00;;
52530;SDS011;38441;52.894;6.040;2023-03-01T08:57:01;23.73;;;16.25;;
52530;SDS011;38441;52.894;6.040;2023-03-01T08:59:27;26.05;;;17.05;;
52530;SDS011;38441;52.894;6.040;2023-03-01T09:01:54;25.27;;;16.92;;
52530;SDS011;38441;52.894;6.040;2023-03-01T09:04:21;28.92;;;18.27;;
52530;SDS011;38441;52.894;6.040;2023-03-01T09:06:47;25.40;;;17.17;;
52530;SDS011;38441;52.894;6.040;2023-03-01T09:09:14;27.00;;;17.63;;
52530;SDS011;38441;52.894;6.040;2023-03-01T09:11:41;26.40;;;16.90;;
52530;SDS011;38441;52.894;6.040;2023-03-01T09:14:08;32.55;;;17.45;;
52530;SDS011;38441;52.894;6.040;2023-03-01T09:16:34;29.23;;;18.42;;
52530;SDS011;38441;52.894;6.040;2023-03-01T09:19:01;28.38;;;17.33;;
52530;SDS011;38441;52.894;6.040;2023-03-01T09:21:27;27.17;;;17.90;;
52530;SDS011;38441;52.894;6.040;2023-03-01T09:23:53;26.42;;;17.85;;
52530;SDS011;38441;52.894;6.040;2023-03-01T09:26:20;25.48;;;17.02;;
52530;SDS011;38441;52.894;6.040;2023-03-01T09:28:47;26.52;;;17.27;;
52530;SDS011;38441;52.894;6.040;2023-03-01T09:31:15;26.33;;;18.08;;
52530;SDS011;38441;52.894;6.040;2023-03-01T09:33:41;26.13;;;17.45;;
52530;SDS011;38441;52.894;6.040;2023-03-01T09:36:10;26.23;;;16.27;;
52530;SDS011;38441;52.894;6.040;2023-03-01T09:38:37;27.98;;;18.80;;
52530;SDS011;38441;52.894;6.040;2023-03-01T09:41:09;25.67;;;17.15;;
52530;SDS011;38441;52.894;6.040;2023-03-01T09:43:56;25.67;;;16.67;;
52530;SDS011;38441;52.894;6.040;2023-03-01T09:46:29;25.52;;;16.58;;
52530;SDS011;38441;52.894;6.040;2023-03-01T09:49:03;27.50;;;17.10;;
52530;SDS011;38441;52.894;6.040;2023-03-01T09:51:35;28.17;;;17.40;;
52530;SDS011;38441;52.894;6.040;2023-03-01T09:54:02;26.63;;;17.73;;
52530;SDS011;38441;52.894;6.040;2023-03-01T09:56:33;26.65;;;16.65;;
52530;SDS011;38441;52.894;6.040;2023-03-01T10:09:24;23.05;;;14.95;;
52530;SDS011;38441;52.894;6.040;2023-03-01T10:11:54;21.58;;;15.57;;
52530;SDS011;38441;52.894;6.040;2023-03-01T10:16:51;22.50;;;14.20;;
52530;SDS011;38441;52.894;6.040;2023-03-01T10:19:32;22.23;;;14.77;;
52530;SDS011;38441;52.894;6.040;2023-03-01T10:22:18;21.80;;;14.02;;
52530;SDS011;38441;52.894;6.040;2023-03-01T10:24:48;19.92;;;13.32;;
52530;SDS011;38441;52.894;6.040;2023-03-01T10:32:16;18.60;;;13.13;;
52530;SDS011;38441;52.894;6.040;2023-03-01T10:34:43;17.58;;;12.13;;
52530;SDS011;38441;52.894;6.040;2023-03-01T10:37:11;16.58;;;12.02;;
52530;SDS011;38441;52.894;6.040;2023-03-01T10:39:37;17.27;;;12.15;;
52530;SDS011;38441;52.894;6.040;2023-03-01T10:42:04;16.85;;;11.40;;
52530;SDS011;38441;52.894;6.040;2023-03-01T10:47:16;18.63;;;12.95;;
52530;SDS011;38441;52.894;6.040;2023-03-01T10:52:25;16.17;;;11.38;;
52530;SDS011;38441;52.894;6.040;2023-03-01T10:54:53;15.82;;;11.18;;
52530;SDS011;38441;52.894;6.040;2023-03-01T10:57:24;15.55;;;11.13;;
52530;SDS011;38441;52.894;6.040;2023-03-01T11:00:14;15.18;;;11.07;;
52530;SDS011;38441;52.894;6.040;2023-03-01T11:03:10;14.45;;;10.70;;
52530;SDS011;38441;52.894;6.040;2023-03-01T11:05:44;16.83;;;11.15;;
52530;SDS011;38441;52.894;6.040;2023-03-01T11:08:42;16.83;;;10.05;;
52530;SDS011;38441;52.894;6.040;2023-03-01T11:11:26;20.15;;;11.85;;
52530;SDS011;38441;52.894;6.040;2023-03-01T11:14:13;18.15;;;11.77;;
52530;SDS011;38441;52.894;6.040;2023-03-01T11:16:42;15.73;;;10.75;;
52530;SDS011;38441;52.894;6.040;2023-03-01T11:21:37;16.80;;;10.95;;
52530;SDS011;38441;52.894;6.040;2023-03-01T11:24:30;15.77;;;10.90;;
52530;SDS011;38441;52.894;6.040;2023-03-01T11:27:29;16.98;;;11.73;;
52530;SDS011;38441;52.894;6.040;2023-03-01T11:29:59;17.15;;;10.98;;
52530;SDS011;38441;52.894;6.040;2023-03-01T11:32:32;15.88;;;10.63;;
52530;SDS011;38441;52.894;6.040;2023-03-01T11:35:20;16.55;;;10.45;;
52530;SDS011;38441;52.894;6.040;2023-03-01T11:37:59;15.93;;;11.07;;
52530;SDS011;38441;52.894;6.040;2023-03-01T11:40:39;16.02;;;10.55;;
52530;SDS011;38441;52.894;6.040;2023-03-01T11:43:15;15.40;;;9.48;;
52530;SDS011;38441;52.894;6.040;2023-03-01T11:48:52;15.13;;;9.65;;
52530;SDS011;38441;52.894;6.040;2023-03-01T11:56:55;13.85;;;9.85;;
52530;SDS011;38441;52.894;6.040;2023-03-01T12:07:10;15.90;;;9.73;;
52530;SDS011;38441;52.894;6.040;2023-03-01T12:12:51;19.90;;;12.27;;
52530;SDS011;38441;52.894;6.040;2023-03-01T12:17:57;16.30;;;10.52;;
52530;SDS011;38441;52.894;6.040;2023-03-01T12:20:54;15.98;;;10.75;;
52530;SDS011;38441;52.894;6.040;2023-03-01T12:23:50;15.90;;;10.00;;
52530;SDS011;38441;52.894;6.040;2023-03-01T12:26:40;17.00;;;11.02;;
52530;SDS011;38441;52.894;6.040;2023-03-01T12:34:35;18.60;;;11.37;;
52530;SDS011;38441;52.894;6.040;2023-03-01T12:40:03;17.10;;;11.25;;
52530;SDS011;38441;52.894;6.040;2023-03-01T12:42:54;17.48;;;10.98;;
52530;SDS011;38441;52.894;6.040;2023-03-01T12:48:10;17.33;;;11.45;;
52530;SDS011;38441;52.894;6.040;2023-03-01T12:50:46;18.60;;;11.48;;
52530;SDS011;38441;52.894;6.040;2023-03-01T12:53:24;15.98;;;11.10;;
52530;SDS011;38441;52.894;6.040;2023-03-01T12:56:01;17.13;;;11.30;;
52530;SDS011;38441;52.894;6.040;2023-03-01T12:58:32;18.55;;;12.10;;
52530;SDS011;38441;52.894;6.040;2023-03-01T13:01:26;18.45;;;11.80;;
52530;SDS011;38441;52.894;6.040;2023-03-01T13:06:38;16.77;;;10.32;;
52530;SDS011;38441;52.894;6.040;2023-03-01T13:11:52;13.82;;;9.73;;
52530;SDS011;38441;52.894;6.040;2023-03-01T13:16:50;17.55;;;10.70;;
52530;SDS011;38441;52.894;6.040;2023-03-01T13:21:44;14.40;;;9.40;;
52530;SDS011;38441;52.894;6.040;2023-03-01T13:29:30;12.80;;;9.00;;
52530;SDS011;38441;52.894;6.040;2023-03-01T13:32:20;14.30;;;9.70;;
52530;SDS011;38441;52.894;6.040;2023-03-01T13:34:48;13.30;;;9.63;;
52530;SDS011;38441;52.894;6.040;2023-03-01T13:37:20;14.35;;;10.20;;
52530;SDS011;38441;52.894;6.040;2023-03-01T13:39:47;13.77;;;9.73;;
52530;SDS011;38441;52.894;6.040;2023-03-01T13:42:30;13.27;;;8.82;;
52530;SDS011;38441;52.894;6.040;2023-03-01T13:44:58;14.07;;;9.18;;
52530;SDS011;38441;52.894;6.040;2023-03-01T13:47:25;14.82;;;9.50;;
52530;SDS011;38441;52.894;6.040;2023-03-01T13:49:57;14.30;;;10.38;;
52530;SDS011;38441;52.894;6.040;2023-03-01T13:57:42;13.65;;;9.70;;
52530;SDS011;38441;52.894;6.040;2023-03-01T14:00:31;18.85;;;10.43;;
52530;SDS011;38441;52.894;6.040;2023-03-01T14:03:08;13.52;;;9.63;;
52530;SDS011;38441;52.894;6.040;2023-03-01T14:05:36;13.77;;;8.93;;
52530;SDS011;38441;52.894;6.040;2023-03-01T14:08:03;14.77;;;9.48;;
52530;SDS011;38441;52.894;6.040;2023-03-01T14:10:36;13.32;;;9.48;;
52530;SDS011;38441;52.894;6.040;2023-03-01T14:19:20;15.85;;;9.10;;
52530;SDS011;38441;52.894;6.040;2023-03-01T14:24:51;15.55;;;9.88;;
52530;SDS011;38441;52.894;6.040;2023-03-01T14:27:19;13.77;;;9.57;;
52530;SDS011;38441;52.894;6.040;2023-03-01T14:29:59;19.30;;;10.23;;
52530;SDS011;38441;52.894;6.040;2023-03-01T14:32:27;12.70;;;9.70;;
52530;SDS011;38441;52.894;6.040;2023-03-01T14:34:55;16.80;;;10.75;;
52530;SDS011;38441;52.894;6.040;2023-03-01T14:37:26;15.13;;;9.63;;
52530;SDS011;38441;52.894;6.040;2023-03-01T14:39:55;14.88;;;10.65;;
52530;SDS011;38441;52.894;6.040;2023-03-01T14:42:22;13.82;;;10.35;;
52530;SDS011;38441;52.894;6.040;2023-03-01T14:44:51;15.77;;;11.15;;
52530;SDS011;38441;52.894;6.040;2023-03-01T14:47:25;15.18;;;10.23;;
52530;SDS011;38441;52.894;6.040;2023-03-01T14:52:37;15.20;;;10.23;;
52530;SDS011;38441;52.894;6.040;2023-03-01T14:55:05;16.33;;;10.85;;
52530;SDS011;38441;52.894;6.040;2023-03-01T14:57:45;16.65;;;9.95;;
52530;SDS011;38441;52.894;6.040;2023-03-01T15:00:19;14.55;;;10.23;;
52530;SDS011;38441;52.894;6.040;2023-03-01T15:02:50;18.17;;;10.73;;
52530;SDS011;38441;52.894;6.040;2023-03-01T15:05:21;15.77;;;10.63;;
52530;SDS011;38441;52.894;6.040;2023-03-01T15:07:54;16.27;;;10.40;;
52530;SDS011;38441;52.894;6.040;2023-03-01T15:10:22;15.60;;;10.15;;
52530;SDS011;38441;52.894;6.040;2023-03-01T15:12:53;15.18;;;10.57;;
52530;SDS011;38441;52.894;6.040;2023-03-01T15:18:43;16.13;;;10.82;;
52530;SDS011;38441;52.894;6.040;2023-03-01T15:20:46;15.15;;;10.20;;
52530;SDS011;38441;52.894;6.040;2023-03-01T15:25:52;14.98;;;10.00;;
52530;SDS011;38441;52.894;6.040;2023-03-01T15:28:41;15.23;;;9.98;;
52530;SDS011;38441;52.894;6.040;2023-03-01T15:31:24;14.75;;;10.02;;
52530;SDS011;38441;52.894;6.040;2023-03-01T15:33:52;15.02;;;9.85;;
52530;SDS011;38441;52.894;6.040;2023-03-01T15:39:05;15.88;;;10.32;;
52530;SDS011;38441;52.894;6.040;2023-03-01T15:41:54;18.05;;;11.52;;
52530;SDS011;38441;52.894;6.040;2023-03-01T15:44:28;14.65;;;10.95;;
52530;SDS011;38441;52.894;6.040;2023-03-01T15:46:55;15.77;;;10.57;;
52530;SDS011;38441;52.894;6.040;2023-03-01T15:49:26;14.60;;;10.23;;
52530;SDS011;38441;52.894;6.040;2023-03-01T15:52:10;14.48;;;9.60;;
52530;SDS011;38441;52.894;6.040;2023-03-01T15:54:46;15.90;;;10.23;;
52530;SDS011;38441;52.894;6.040;2023-03-01T15:57:14;15.85;;;10.85;;
52530;SDS011;38441;52.894;6.040;2023-03-01T15:59:40;15.75;;;10.40;;
52530;SDS011;38441;52.894;6.040;2023-03-01T16:02:12;15.02;;;10.40;;
52530;SDS011;38441;52.894;6.040;2023-03-01T16:04:38;16.75;;;10.48;;
52530;SDS011;38441;52.894;6.040;2023-03-01T16:07:05;14.38;;;10.13;;
52530;SDS011;38441;52.894;6.040;2023-03-01T16:09:31;14.18;;;10.13;;
52530;SDS011;38441;52.894;6.040;2023-03-01T16:11:57;13.77;;;9.70;;
52530;SDS011;38441;52.894;6.040;2023-03-01T16:14:23;15.57;;;10.02;;
52530;SDS011;38441;52.894;6.040;2023-03-01T16:16:49;13.77;;;9.25;;
52530;SDS011;38441;52.894;6.040;2023-03-01T16:19:15;15.82;;;10.25;;
52530;SDS011;38441;52.894;6.040;2023-03-01T16:21:42;15.48;;;9.10;;
52530;SDS011;38441;52.894;6.040;2023-03-01T16:24:11;14.75;;;10.00;;
52530;SDS011;38441;52.894;6.040;2023-03-01T16:26:37;13.68;;;9.95;;
52530;SDS011;38441;52.894;6.040;2023-03-01T16:29:04;13.35;;;8.80;;
52530;SDS011;38441;52.894;6.040;2023-03-01T16:31:29;15.50;;;9.77;;
52530;SDS011;38441;52.894;6.040;2023-03-01T16:33:57;13.93;;;9.30;;
52530;SDS011;38441;52.894;6.040;2023-03-01T16:36:24;14.25;;;9.27;;
52530;SDS011;38441;52.894;6.040;2023-03-01T16:38:53;15.02;;;9.80;;
52530;SDS011;38441;52.894;6.040;2023-03-01T16:41:20;14.90;;;11.10;;
52530;SDS011;38441;52.894;6.040;2023-03-01T16:43:47;15.88;;;10.25;;
52530;SDS011;38441;52.894;6.040;2023-03-01T16:46:23;15.35;;;10.77;;
52530;SDS011;38441;52.894;6.040;2023-03-01T16:48:53;17.13;;;10.25;;
52530;SDS011;38441;52.894;6.040;2023-03-01T16:51:19;16.98;;;10.25;;
52530;SDS011;38441;52.894;6.040;2023-03-01T16:53:45;14.38;;;10.13;;
52530;SDS011;38441;52.894;6.040;2023-03-01T16:56:12;16.80;;;10.10;;